sensor_id;sensor_type;location;lat;lon;timestamp;P1;durP1;ratioP1;P2;durP2;ratioP2
4642;SDS011;2334;48.710;9.622;2022-12-16T00:01:58;22.20;;;11.40;;
4642;SDS011;2334;48.710;9.622;2022-12-16T00:04:25;33.70;;;12.40;;
4642;SDS011;2334;48.710;9.622;2022-12-16T00:06:52;23.03;;;12.10;;
4642;SDS011;2334;48.710;9.622;2022-12-16T00:09:19;28.37;;;10.90;;
4642;SDS011;2334;48.710;9.622;2022-12-16T00:11:46;24.20;;;11.70;;
4642;SDS011;2334;48.710;9.622;2022-12-16T00:14:14;26.80;;;11.40;;
4642;SDS011;2334;48.710;9.622;2022-12-16T00:16:41;26.73;;;11.80;;
4642;SDS011;2334;48.710;9.622;2022-12-16T00:19:08;28.67;;;10.90;;
4642;SDS011;2334;48.710;9.622;2022-12-16T00:21:34;22.87;;;11.40;;
4642;SDS011;2334;48.710;9.622;2022-12-16T00:24:01;25.40;;;11.30;;
4642;SDS011;2334;48.710;9.622;2022-12-16T00:26:28;27.30;;;11.40;;
4642;SDS011;2334;48.710;9.622;2022-12-16T00:28:55;24.90;;;11.80;;
4642;SDS011;2334;48.710;9.622;2022-12-16T00:31:24;27.50;;;13.50;;
4642;SDS011;2334;48.710;9.622;2022-12-16T00:33:54;27.73;;;13.60;;
4642;SDS011;2334;48.710;9.622;2022-12-16T00:36:21;28.93;;;11.17;;
4642;SDS011;2334;48.710;9.622;2022-12-16T00:38:50;27.73;;;13.50;;
4642;SDS011;2334;48.710;9.622;2022-12-16T00:41:18;19.70;;;10.97;;
4642;SDS011;2334;48.710;9.622;2022-12-16T00:43:44;28.37;;;13.37;;
4642;SDS011;2334;48.710;9.622;2022-12-16T00:46:11;27.70;;;11.07;;
4642;SDS011;2334;48.710;9.622;2022-12-16T00:48:40;34.57;;;13.50;;
4642;SDS011;2334;48.710;9.622;2022-12-16T00:51:06;24.43;;;10.20;;
4642;SDS011;2334;48.710;9.622;2022-12-16T00:53:33;22.47;;;12.70;;
4642;SDS011;2334;48.710;9.622;2022-12-16T00:56:01;31.50;;;12.53;;
4642;SDS011;2334;48.710;9.622;2022-12-16T00:58:28;25.70;;;11.87;;
4642;SDS011;2334;48.710;9.622;2022-12-16T01:00:55;24.53;;;12.20;;
4642;SDS011;2334;48.710;9.622;2022-12-16T01:03:22;23.07;;;11.20;;
4642;SDS011;2334;48.710;9.622;2022-12-16T01:05:50;30.37;;;12.40;;
4642;SDS011;2334;48.710;9.622;2022-12-16T01:08:17;26.77;;;12.43;;
4642;SDS011;2334;48.710;9.622;2022-12-16T01:10:48;27.70;;;12.40;;
4642;SDS011;2334;48.710;9.622;2022-12-16T01:13:16;24.77;;;10.70;;
4642;SDS011;2334;48.710;9.622;2022-12-16T01:15:43;29.77;;;13.30;;
4642;SDS011;2334;48.710;9.622;2022-12-16T01:18:10;30.13;;;12.60;;
4642;SDS011;2334;48.710;9.622;2022-12-16T01:20:37;23.30;;;11.63;;
4642;SDS011;2334;48.710;9.622;2022-12-16T01:23:05;28.67;;;10.80;;
4642;SDS011;2334;48.710;9.622;2022-12-16T01:25:32;25.30;;;12.53;;
4642;SDS011;2334;48.710;9.622;2022-12-16T01:27:59;23.30;;;11.50;;
4642;SDS011;2334;48.710;9.622;2022-12-16T01:30:25;24.67;;;11.40;;
4642;SDS011;2334;48.710;9.622;2022-12-16T01:32:52;23.00;;;12.10;;
4642;SDS011;2334;48.710;9.622;2022-12-16T01:35:19;22.23;;;10.60;;
4642;SDS011;2334;48.710;9.622;2022-12-16T01:37:46;26.30;;;11.50;;
4642;SDS011;2334;48.710;9.622;2022-12-16T01:40:15;28.97;;;11.40;;
4642;SDS011;2334;48.710;9.622;2022-12-16T01:42:44;19.20;;;10.40;;
4642;SDS011;2334;48.710;9.622;2022-12-16T01:45:31;22.73;;;10.07;;
4642;SDS011;2334;48.710;9.622;2022-12-16T01:48:00;22.33;;;9.93;;
4642;SDS011;2334;48.710;9.622;2022-12-16T01:50:32;25.10;;;11.63;;
4642;SDS011;2334;48.710;9.622;2022-12-16T01:53:01;19.53;;;8.67;;
4642;SDS011;2334;48.710;9.622;2022-12-16T01:55:33;23.27;;;10.83;;
4642;SDS011;2334;48.710;9.622;2022-12-16T01:58:04;22.30;;;10.87;;
4642;SDS011;2334;48.710;9.622;2022-12-16T02:00:35;21.00;;;11.67;;
4642;SDS011;2334;48.710;9.622;2022-12-16T02:03:04;31.30;;;11.30;;
4642;SDS011;2334;48.710;9.622;2022-12-16T02:05:32;26.23;;;11.70;;
4642;SDS011;2334;48.710;9.622;2022-12-16T02:08:05;27.60;;;11.67;;
4642;SDS011;2334;48.710;9.622;2022-12-16T02:10:41;33.00;;;12.33;;
4642;SDS011;2334;48.710;9.622;2022-12-16T02:13:25;25.03;;;11.97;;
4642;SDS011;2334;48.710;9.622;2022-12-16T02:16:00;20.67;;;9.40;;
4642;SDS011;2334;48.710;9.622;2022-12-16T02:18:36;20.07;;;10.10;;
4642;SDS011;2334;48.710;9.622;2022-12-16T02:21:14;26.20;;;10.63;;
4642;SDS011;2334;48.710;9.622;2022-12-16T02:27:06;19.90;;;9.97;;
4642;SDS011;2334;48.710;9.622;2022-12-16T02:30:06;25.90;;;10.70;;
4642;SDS011;2334;48.710;9.622;2022-12-16T02:32:49;25.63;;;11.60;;
4642;SDS011;2334;48.710;9.622;2022-12-16T02:35:24;20.07;;;10.70;;
4642;SDS011;2334;48.710;9.622;2022-12-16T02:38:02;24.67;;;10.93;;
4642;SDS011;2334;48.710;9.622;2022-12-16T02:40:40;23.33;;;11.77;;
4642;SDS011;2334;48.710;9.622;2022-12-16T02:43:12;26.20;;;13.20;;
4642;SDS011;2334;48.710;9.622;2022-12-16T02:45:45;25.70;;;12.10;;
4642;SDS011;2334;48.710;9.622;2022-12-16T02:48:13;30.23;;;12.40;;
4642;SDS011;2334;48.710;9.622;2022-12-16T02:50:40;28.77;;;12.27;;
4642;SDS011;2334;48.710;9.622;2022-12-16T02:53:11;27.30;;;11.77;;
4642;SDS011;2334;48.710;9.622;2022-12-16T02:55:41;24.10;;;11.93;;
4642;SDS011;2334;48.710;9.622;2022-12-16T02:58:18;25.57;;;10.93;;
4642;SDS011;2334;48.710;9.622;2022-12-16T03:00:55;30.33;;;12.23;;
4642;SDS011;2334;48.710;9.622;2022-12-16T03:03:31;20.70;;;12.43;;
4642;SDS011;2334;48.710;9.622;2022-12-16T03:06:02;23.90;;;9.97;;
4642;SDS011;2334;48.710;9.622;2022-12-16T03:08:32;23.63;;;9.77;;
4642;SDS011;2334;48.710;9.622;2022-12-16T03:11:02;27.17;;;12.90;;
4642;SDS011;2334;48.710;9.622;2022-12-16T03:13:33;29.83;;;12.57;;
4642;SDS011;2334;48.710;9.622;2022-12-16T03:16:04;26.90;;;12.53;;
4642;SDS011;2334;48.710;9.622;2022-12-16T03:18:34;37.07;;;10.90;;
4642;SDS011;2334;48.710;9.622;2022-12-16T03:21:04;27.63;;;13.00;;
4642;SDS011;2334;48.710;9.622;2022-12-16T03:23:35;20.23;;;10.33;;
4642;SDS011;2334;48.710;9.622;2022-12-16T03:26:07;24.43;;;12.37;;
4642;SDS011;2334;48.710;9.622;2022-12-16T03:28:42;21.47;;;11.70;;
4642;SDS011;2334;48.710;9.622;2022-12-16T03:31:16;23.60;;;10.90;;
4642;SDS011;2334;48.710;9.622;2022-12-16T03:33:53;30.53;;;10.90;;
4642;SDS011;2334;48.710;9.622;2022-12-16T03:36:23;31.10;;;15.30;;
4642;SDS011;2334;48.710;9.622;2022-12-16T03:38:52;29.80;;;12.47;;
4642;SDS011;2334;48.710;9.622;2022-12-16T03:41:20;28.73;;;12.40;;
4642;SDS011;2334;48.710;9.622;2022-12-16T03:43:48;30.80;;;13.23;;
4642;SDS011;2334;48.710;9.622;2022-12-16T03:46:17;26.33;;;12.63;;
4642;SDS011;2334;48.710;9.622;2022-12-16T03:48:45;38.83;;;15.80;;
4642;SDS011;2334;48.710;9.622;2022-12-16T03:51:14;37.37;;;16.00;;
4642;SDS011;2334;48.710;9.622;2022-12-16T03:53:41;43.27;;;14.93;;
4642;SDS011;2334;48.710;9.622;2022-12-16T03:56:08;31.70;;;16.03;;
4642;SDS011;2334;48.710;9.622;2022-12-16T03:58:35;37.07;;;15.47;;
4642;SDS011;2334;48.710;9.622;2022-12-16T04:01:04;42.93;;;19.23;;
4642;SDS011;2334;48.710;9.622;2022-12-16T04:03:32;38.10;;;17.27;;
4642;SDS011;2334;48.710;9.622;2022-12-16T04:05:59;41.00;;;17.07;;
4642;SDS011;2334;48.710;9.622;2022-12-16T04:08:26;35.80;;;14.87;;
4642;SDS011;2334;48.710;9.622;2022-12-16T04:10:53;38.67;;;16.00;;
4642;SDS011;2334;48.710;9.622;2022-12-16T04:13:37;29.50;;;14.60;;
4642;SDS011;2334;48.710;9.622;2022-12-16T04:16:22;32.77;;;14.77;;
4642;SDS011;2334;48.710;9.622;2022-12-16T04:19:10;31.93;;;13.47;;
4642;SDS011;2334;48.710;9.622;2022-12-16T04:22:04;34.43;;;11.80;;
4642;SDS011;2334;48.710;9.622;2022-12-16T04:24:54;32.57;;;12.70;;
4642;SDS011;2334;48.710;9.622;2022-12-16T04:27:21;28.33;;;12.40;;
4642;SDS011;2334;48.710;9.622;2022-12-16T04:29:51;37.23;;;15.87;;
4642;SDS011;2334;48.710;9.622;2022-12-16T04:32:36;25.43;;;12.77;;
4642;SDS011;2334;48.710;9.622;2022-12-16T04:35:22;31.67;;;14.33;;
4642;SDS011;2334;48.710;9.622;2022-12-16T04:38:06;33.50;;;15.67;;
4642;SDS011;2334;48.710;9.622;2022-12-16T04:40:50;32.23;;;14.10;;
4642;SDS011;2334;48.710;9.622;2022-12-16T04:43:35;35.80;;;15.63;;
4642;SDS011;2334;48.710;9.622;2022-12-16T04:46:19;31.17;;;14.20;;
4642;SDS011;2334;48.710;9.622;2022-12-16T04:49:03;28.17;;;14.70;;
4642;SDS011;2334;48.710;9.622;2022-12-16T04:51:49;36.60;;;14.73;;
4642;SDS011;2334;48.710;9.622;2022-12-16T04:54:32;28.97;;;12.70;;
4642;SDS011;2334;48.710;9.622;2022-12-16T04:57:16;33.83;;;16.40;;
4642;SDS011;2334;48.710;9.622;2022-12-16T05:00:01;36.77;;;14.40;;
4642;SDS011;2334;48.710;9.622;2022-12-16T05:02:47;30.70;;;14.20;;
4642;SDS011;2334;48.710;9.622;2022-12-16T05:05:31;32.23;;;15.27;;
4642;SDS011;2334;48.710;9.622;2022-12-16T05:08:17;27.33;;;14.00;;
4642;SDS011;2334;48.710;9.622;2022-12-16T05:11:01;29.93;;;14.70;;
4642;SDS011;2334;48.710;9.622;2022-12-16T05:13:46;33.03;;;14.23;;
4642;SDS011;2334;48.710;9.622;2022-12-16T05:16:30;36.20;;;14.87;;
4642;SDS011;2334;48.710;9.622;2022-12-16T05:19:14;30.60;;;13.00;;
4642;SDS011;2334;48.710;9.622;2022-12-16T05:21:59;34.00;;;14.57;;
4642;SDS011;2334;48.710;9.622;2022-12-16T05:24:44;22.10;;;12.80;;
4642;SDS011;2334;48.710;9.622;2022-12-16T05:27:28;33.57;;;16.60;;
4642;SDS011;2334;48.710;9.622;2022-12-16T05:30:12;34.20;;;15.80;;
4642;SDS011;2334;48.710;9.622;2022-12-16T05:32:57;37.97;;;16.80;;
4642;SDS011;2334;48.710;9.622;2022-12-16T05:35:41;26.20;;;13.20;;
4642;SDS011;2334;48.710;9.622;2022-12-16T05:38:25;27.30;;;15.30;;
4642;SDS011;2334;48.710;9.622;2022-12-16T05:41:10;46.03;;;17.40;;
4642;SDS011;2334;48.710;9.622;2022-12-16T05:43:55;45.30;;;17.40;;
4642;SDS011;2334;48.710;9.622;2022-12-16T05:46:39;43.83;;;17.47;;
4642;SDS011;2334;48.710;9.622;2022-12-16T05:49:23;41.50;;;16.20;;
4642;SDS011;2334;48.710;9.622;2022-12-16T05:52:07;32.03;;;16.20;;
4642;SDS011;2334;48.710;9.622;2022-12-16T05:54:51;50.90;;;20.30;;
4642;SDS011;2334;48.710;9.622;2022-12-16T05:57:48;29.40;;;15.80;;
4642;SDS011;2334;48.710;9.622;2022-12-16T06:00:33;44.40;;;16.50;;
4642;SDS011;2334;48.710;9.622;2022-12-16T06:03:17;30.57;;;15.57;;
4642;SDS011;2334;48.710;9.622;2022-12-16T06:06:01;34.80;;;16.37;;
4642;SDS011;2334;48.710;9.622;2022-12-16T06:08:46;33.50;;;14.20;;
4642;SDS011;2334;48.710;9.622;2022-12-16T06:11:35;44.50;;;17.30;;
4642;SDS011;2334;48.710;9.622;2022-12-16T06:14:21;34.60;;;14.40;;
4642;SDS011;2334;48.710;9.622;2022-12-16T06:17:05;41.37;;;15.70;;
4642;SDS011;2334;48.710;9.622;2022-12-16T06:19:49;38.00;;;17.00;;
4642;SDS011;2334;48.710;9.622;2022-12-16T06:22:33;50.90;;;21.97;;
4642;SDS011;2334;48.710;9.622;2022-12-16T06:25:18;39.30;;;16.60;;
4642;SDS011;2334;48.710;9.622;2022-12-16T06:28:02;51.07;;;18.40;;
4642;SDS011;2334;48.710;9.622;2022-12-16T06:30:48;37.10;;;17.53;;
4642;SDS011;2334;48.710;9.622;2022-12-16T06:33:32;36.60;;;17.83;;
4642;SDS011;2334;48.710;9.622;2022-12-16T06:36:16;40.67;;;16.13;;
4642;SDS011;2334;48.710;9.622;2022-12-16T06:39:01;34.27;;;15.60;;
4642;SDS011;2334;48.710;9.622;2022-12-16T06:41:45;34.90;;;16.10;;
4642;SDS011;2334;48.710;9.622;2022-12-16T06:44:30;29.87;;;15.60;;
4642;SDS011;2334;48.710;9.622;2022-12-16T06:47:15;35.53;;;16.90;;
4642;SDS011;2334;48.710;9.622;2022-12-16T06:50:00;38.43;;;16.97;;
4642;SDS011;2334;48.710;9.622;2022-12-16T06:52:44;41.03;;;16.50;;
4642;SDS011;2334;48.710;9.622;2022-12-16T06:55:29;34.57;;;16.60;;
4642;SDS011;2334;48.710;9.622;2022-12-16T06:58:13;36.67;;;16.40;;
4642;SDS011;2334;48.710;9.622;2022-12-16T07:00:58;35.17;;;16.07;;
4642;SDS011;2334;48.710;9.622;2022-12-16T07:03:48;36.17;;;15.80;;
4642;SDS011;2334;48.710;9.622;2022-12-16T07:06:32;42.97;;;17.40;;
4642;SDS011;2334;48.710;9.622;2022-12-16T07:09:16;58.90;;;23.77;;
4642;SDS011;2334;48.710;9.622;2022-12-16T07:12:00;61.50;;;23.73;;
4642;SDS011;2334;48.710;9.622;2022-12-16T07:14:44;51.43;;;22.67;;
4642;SDS011;2334;48.710;9.622;2022-12-16T07:17:28;69.37;;;24.37;;
4642;SDS011;2334;48.710;9.622;2022-12-16T07:20:14;50.27;;;21.30;;
4642;SDS011;2334;48.710;9.622;2022-12-16T07:22:58;49.30;;;20.00;;
4642;SDS011;2334;48.710;9.622;2022-12-16T07:25:42;59.70;;;21.30;;
4642;SDS011;2334;48.710;9.622;2022-12-16T07:28:32;60.60;;;21.33;;
4642;SDS011;2334;48.710;9.622;2022-12-16T07:31:16;34.47;;;15.50;;
4642;SDS011;2334;48.710;9.622;2022-12-16T07:34:00;49.03;;;20.17;;
4642;SDS011;2334;48.710;9.622;2022-12-16T07:36:45;36.43;;;17.00;;
4642;SDS011;2334;48.710;9.622;2022-12-16T07:39:30;42.90;;;19.40;;
4642;SDS011;2334;48.710;9.622;2022-12-16T07:42:14;62.03;;;26.03;;
4642;SDS011;2334;48.710;9.622;2022-12-16T07:44:58;29.87;;;14.53;;
4642;SDS011;2334;48.710;9.622;2022-12-16T07:47:45;48.10;;;22.27;;
4642;SDS011;2334;48.710;9.622;2022-12-16T07:50:30;43.00;;;16.73;;
4642;SDS011;2334;48.710;9.622;2022-12-16T07:53:15;41.07;;;17.03;;
4642;SDS011;2334;48.710;9.622;2022-12-16T07:56:00;40.13;;;19.37;;
4642;SDS011;2334;48.710;9.622;2022-12-16T07:58:44;41.23;;;18.40;;
4642;SDS011;2334;48.710;9.622;2022-12-16T08:01:28;22.40;;;13.00;;
4642;SDS011;2334;48.710;9.622;2022-12-16T08:04:13;26.47;;;10.90;;
4642;SDS011;2334;48.710;9.622;2022-12-16T08:06:57;22.27;;;10.50;;
4642;SDS011;2334;48.710;9.622;2022-12-16T08:09:43;24.23;;;9.97;;
4642;SDS011;2334;48.710;9.622;2022-12-16T08:12:27;24.40;;;13.17;;
4642;SDS011;2334;48.710;9.622;2022-12-16T08:15:11;28.20;;;11.27;;
4642;SDS011;2334;48.710;9.622;2022-12-16T08:17:56;19.70;;;9.90;;
4642;SDS011;2334;48.710;9.622;2022-12-16T08:20:40;21.77;;;10.10;;
4642;SDS011;2334;48.710;9.622;2022-12-16T08:23:24;22.37;;;9.70;;
4642;SDS011;2334;48.710;9.622;2022-12-16T08:26:10;30.80;;;13.13;;
4642;SDS011;2334;48.710;9.622;2022-12-16T08:28:55;29.07;;;14.10;;
4642;SDS011;2334;48.710;9.622;2022-12-16T08:31:39;29.07;;;13.20;;
4642;SDS011;2334;48.710;9.622;2022-12-16T08:34:23;27.03;;;13.47;;
4642;SDS011;2334;48.710;9.622;2022-12-16T08:37:07;24.67;;;12.57;;
4642;SDS011;2334;48.710;9.622;2022-12-16T08:39:52;27.97;;;12.47;;
4642;SDS011;2334;48.710;9.622;2022-12-16T08:42:37;18.20;;;10.30;;
4642;SDS011;2334;48.710;9.622;2022-12-16T08:45:22;28.60;;;13.30;;
4642;SDS011;2334;48.710;9.622;2022-12-16T08:48:07;23.83;;;11.73;;
4642;SDS011;2334;48.710;9.622;2022-12-16T08:50:51;23.37;;;11.80;;
4642;SDS011;2334;48.710;9.622;2022-12-16T08:53:35;24.30;;;9.83;;
4642;SDS011;2334;48.710;9.622;2022-12-16T08:56:20;21.60;;;11.80;;
4642;SDS011;2334;48.710;9.622;2022-12-16T08:59:05;22.07;;;10.83;;
4642;SDS011;2334;48.710;9.622;2022-12-16T09:01:50;27.70;;;11.60;;
4642;SDS011;2334;48.710;9.622;2022-12-16T09:04:34;30.90;;;11.63;;
4642;SDS011;2334;48.710;9.622;2022-12-16T09:07:18;27.13;;;11.97;;
4642;SDS011;2334;48.710;9.622;2022-12-16T09:10:03;20.67;;;10.20;;
4642;SDS011;2334;48.710;9.622;2022-12-16T09:12:48;25.63;;;10.53;;
4642;SDS011;2334;48.710;9.622;2022-12-16T09:15:39;28.83;;;8.63;;
4642;SDS011;2334;48.710;9.622;2022-12-16T09:18:23;21.80;;;10.70;;
4642;SDS011;2334;48.710;9.622;2022-12-16T09:21:07;19.90;;;9.37;;
4642;SDS011;2334;48.710;9.622;2022-12-16T09:23:51;22.10;;;11.63;;
4642;SDS011;2334;48.710;9.622;2022-12-16T09:26:35;25.20;;;10.77;;
4642;SDS011;2334;48.710;9.622;2022-12-16T09:29:20;17.27;;;9.10;;
4642;SDS011;2334;48.710;9.622;2022-12-16T09:32:05;22.30;;;10.87;;
4642;SDS011;2334;48.710;9.622;2022-12-16T09:34:50;23.03;;;9.63;;
4642;SDS011;2334;48.710;9.622;2022-12-16T09:37:34;42.90;;;19.83;;
4642;SDS011;2334;48.710;9.622;2022-12-16T09:40:20;29.07;;;9.70;;
4642;SDS011;2334;48.710;9.622;2022-12-16T09:43:06;30.93;;;11.10;;
4642;SDS011;2334;48.710;9.622;2022-12-16T09:45:58;79.87;;;21.80;;
4642;SDS011;2334;48.710;9.622;2022-12-16T09:48:54;148.97;;;36.83;;
4642;SDS011;2334;48.710;9.622;2022-12-16T09:51:44;69.37;;;21.07;;
4642;SDS011;2334;48.710;9.622;2022-12-16T09:54:31;72.50;;;20.23;;
4642;SDS011;2334;48.710;9.622;2022-12-16T09:57:18;75.60;;;21.60;;
4642;SDS011;2334;48.710;9.622;2022-12-16T10:00:04;53.27;;;18.20;;
4642;SDS011;2334;48.710;9.622;2022-12-16T10:02:55;20.57;;;9.50;;
4642;SDS011;2334;48.710;9.622;2022-12-16T10:05:45;69.60;;;18.30;;
4642;SDS011;2334;48.710;9.622;2022-12-16T10:08:48;24.57;;;9.00;;
4642;SDS011;2334;48.710;9.622;2022-12-16T10:11:41;29.37;;;10.20;;
4642;SDS011;2334;48.710;9.622;2022-12-16T10:14:35;38.03;;;12.60;;
4642;SDS011;2334;48.710;9.622;2022-12-16T10:17:25;44.27;;;15.07;;
4642;SDS011;2334;48.710;9.622;2022-12-16T10:20:12;118.53;;;21.70;;
4642;SDS011;2334;48.710;9.622;2022-12-16T10:23:09;52.70;;;12.43;;
4642;SDS011;2334;48.710;9.622;2022-12-16T10:26:01;43.43;;;12.20;;
4642;SDS011;2334;48.710;9.622;2022-12-16T10:28:51;32.23;;;15.00;;
4642;SDS011;2334;48.710;9.622;2022-12-16T10:31:40;56.90;;;22.63;;
4642;SDS011;2334;48.710;9.622;2022-12-16T10:34:27;28.60;;;13.50;;
4642;SDS011;2334;48.710;9.622;2022-12-16T10:37:12;33.70;;;13.90;;
4642;SDS011;2334;48.710;9.622;2022-12-16T10:40:06;46.97;;;15.97;;
4642;SDS011;2334;48.710;9.622;2022-12-16T10:42:58;39.13;;;13.80;;
4642;SDS011;2334;48.710;9.622;2022-12-16T10:45:46;43.57;;;17.70;;
4642;SDS011;2334;48.710;9.622;2022-12-16T10:48:33;18.73;;;9.10;;
4642;SDS011;2334;48.710;9.622;2022-12-16T10:51:18;45.20;;;16.40;;
4642;SDS011;2334;48.710;9.622;2022-12-16T10:54:11;18.40;;;8.87;;
4642;SDS011;2334;48.710;9.622;2022-12-16T10:57:09;21.27;;;9.53;;
4642;SDS011;2334;48.710;9.622;2022-12-16T11:00:07;33.90;;;13.03;;
4642;SDS011;2334;48.710;9.622;2022-12-16T11:02:53;19.70;;;10.23;;
4642;SDS011;2334;48.710;9.622;2022-12-16T11:05:37;30.60;;;11.80;;
4642;SDS011;2334;48.710;9.622;2022-12-16T11:08:23;30.90;;;12.10;;
4642;SDS011;2334;48.710;9.622;2022-12-16T11:11:13;40.10;;;15.10;;
4642;SDS011;2334;48.710;9.622;2022-12-16T11:14:16;59.90;;;20.20;;
4642;SDS011;2334;48.710;9.622;2022-12-16T11:17:11;46.27;;;15.27;;
4642;SDS011;2334;48.710;9.622;2022-12-16T11:20:10;26.80;;;10.60;;
4642;SDS011;2334;48.710;9.622;2022-12-16T11:23:11;51.57;;;16.33;;
4642;SDS011;2334;48.710;9.622;2022-12-16T11:26:06;55.30;;;18.63;;
4642;SDS011;2334;48.710;9.622;2022-12-16T11:29:07;23.77;;;11.73;;
4642;SDS011;2334;48.710;9.622;2022-12-16T11:31:59;22.63;;;10.53;;
4642;SDS011;2334;48.710;9.622;2022-12-16T11:34:48;30.40;;;11.80;;
4642;SDS011;2334;48.710;9.622;2022-12-16T11:37:35;14.77;;;8.10;;
4642;SDS011;2334;48.710;9.622;2022-12-16T11:40:21;26.20;;;11.00;;
4642;SDS011;2334;48.710;9.622;2022-12-16T11:43:07;14.10;;;8.20;;
4642;SDS011;2334;48.710;9.622;2022-12-16T11:45:55;13.87;;;8.40;;
4642;SDS011;2334;48.710;9.622;2022-12-16T11:48:43;13.77;;;7.93;;
4642;SDS011;2334;48.710;9.622;2022-12-16T11:51:30;15.97;;;8.97;;
4642;SDS011;2334;48.710;9.622;2022-12-16T11:54:18;21.30;;;8.00;;
4642;SDS011;2334;48.710;9.622;2022-12-16T11:57:12;15.83;;;8.27;;
4642;SDS011;2334;48.710;9.622;2022-12-16T12:00:00;16.13;;;6.87;;
4642;SDS011;2334;48.710;9.622;2022-12-16T12:02:47;15.33;;;7.40;;
4642;SDS011;2334;48.710;9.622;2022-12-16T12:05:43;14.97;;;8.63;;
4642;SDS011;2334;48.710;9.622;2022-12-16T12:08:34;14.00;;;6.60;;
4642;SDS011;2334;48.710;9.622;2022-12-16T12:11:26;17.93;;;7.37;;
4642;SDS011;2334;48.710;9.622;2022-12-16T12:14:16;16.60;;;7.73;;
4642;SDS011;2334;48.710;9.622;2022-12-16T12:17:13;66.83;;;21.60;;
4642;SDS011;2334;48.710;9.622;2022-12-16T12:20:17;37.53;;;13.53;;
4642;SDS011;2334;48.710;9.622;2022-12-16T12:23:22;105.13;;;25.27;;
4642;SDS011;2334;48.710;9.622;2022-12-16T12:26:34;25.80;;;11.70;;
4642;SDS011;2334;48.710;9.622;2022-12-16T12:29:23;29.70;;;13.20;;
4642;SDS011;2334;48.710;9.622;2022-12-16T12:32:17;25.93;;;10.17;;
4642;SDS011;2334;48.710;9.622;2022-12-16T12:35:08;18.03;;;8.30;;
4642;SDS011;2334;48.710;9.622;2022-12-16T12:38:05;16.70;;;7.07;;
4642;SDS011;2334;48.710;9.622;2022-12-16T12:40:59;19.30;;;8.87;;
4642;SDS011;2334;48.710;9.622;2022-12-16T12:43:51;27.00;;;9.40;;
4642;SDS011;2334;48.710;9.622;2022-12-16T12:46:45;56.33;;;18.10;;
4642;SDS011;2334;48.710;9.622;2022-12-16T12:49:39;23.80;;;11.50;;
4642;SDS011;2334;48.710;9.622;2022-12-16T12:52:39;36.73;;;12.57;;
4642;SDS011;2334;48.710;9.622;2022-12-16T12:56:01;65.10;;;25.37;;
4642;SDS011;2334;48.710;9.622;2022-12-16T12:58:52;48.73;;;18.00;;
4642;SDS011;2334;48.710;9.622;2022-12-16T13:01:42;19.20;;;8.37;;
4642;SDS011;2334;48.710;9.622;2022-12-16T13:04:28;10.30;;;6.23;;
4642;SDS011;2334;48.710;9.622;2022-12-16T13:07:15;17.47;;;8.10;;
4642;SDS011;2334;48.710;9.622;2022-12-16T13:10:16;18.33;;;7.83;;
4642;SDS011;2334;48.710;9.622;2022-12-16T13:13:32;18.60;;;6.47;;
4642;SDS011;2334;48.710;9.622;2022-12-16T13:19:39;12.33;;;6.97;;
4642;SDS011;2334;48.710;9.622;2022-12-16T13:22:29;14.10;;;6.43;;
4642;SDS011;2334;48.710;9.622;2022-12-16T13:25:35;14.10;;;6.93;;
4642;SDS011;2334;48.710;9.622;2022-12-16T13:28:26;14.60;;;7.53;;
4642;SDS011;2334;48.710;9.622;2022-12-16T13:31:14;12.53;;;5.57;;
4642;SDS011;2334;48.710;9.622;2022-12-16T13:34:02;12.23;;;7.00;;
4642;SDS011;2334;48.710;9.622;2022-12-16T13:36:52;13.27;;;6.40;;
4642;SDS011;2334;48.710;9.622;2022-12-16T13:39:39;12.00;;;5.93;;
4642;SDS011;2334;48.710;9.622;2022-12-16T13:45:37;15.47;;;6.03;;
4642;SDS011;2334;48.710;9.622;2022-12-16T13:48:36;11.87;;;5.93;;
4642;SDS011;2334;48.710;9.622;2022-12-16T13:54:50;11.83;;;5.80;;
4642;SDS011;2334;48.710;9.622;2022-12-16T13:57:42;8.20;;;5.10;;
4642;SDS011;2334;48.710;9.622;2022-12-16T14:00:28;13.97;;;6.80;;
4642;SDS011;2334;48.710;9.622;2022-12-16T14:03:18;11.40;;;6.60;;
4642;SDS011;2334;48.710;9.622;2022-12-16T14:06:08;11.27;;;6.07;;
4642;SDS011;2334;48.710;9.622;2022-12-16T14:08:58;15.80;;;7.53;;
4642;SDS011;2334;48.710;9.622;2022-12-16T14:11:42;14.90;;;7.73;;
4642;SDS011;2334;48.710;9.622;2022-12-16T14:14:32;34.30;;;14.53;;
4642;SDS011;2334;48.710;9.622;2022-12-16T14:17:23;17.20;;;8.40;;
4642;SDS011;2334;48.710;9.622;2022-12-16T14:20:18;18.67;;;8.23;;
4642;SDS011;2334;48.710;9.622;2022-12-16T14:23:10;17.60;;;8.73;;
4642;SDS011;2334;48.710;9.622;2022-12-16T14:26:03;10.43;;;6.53;;
4642;SDS011;2334;48.710;9.622;2022-12-16T14:28:48;8.50;;;5.77;;
4642;SDS011;2334;48.710;9.622;2022-12-16T14:31:34;33.67;;;14.70;;
4642;SDS011;2334;48.710;9.622;2022-12-16T14:34:20;27.23;;;11.93;;
4642;SDS011;2334;48.710;9.622;2022-12-16T14:37:10;20.50;;;8.53;;
4642;SDS011;2334;48.710;9.622;2022-12-16T14:39:56;26.93;;;11.80;;
4642;SDS011;2334;48.710;9.622;2022-12-16T14:42:40;17.90;;;10.00;;
4642;SDS011;2334;48.710;9.622;2022-12-16T14:45:27;10.73;;;8.50;;
4642;SDS011;2334;48.710;9.622;2022-12-16T14:48:13;17.53;;;6.60;;
4642;SDS011;2334;48.710;9.622;2022-12-16T14:54:19;21.23;;;10.83;;
4642;SDS011;2334;48.710;9.622;2022-12-16T14:57:09;14.53;;;8.20;;
4642;SDS011;2334;48.710;9.622;2022-12-16T14:59:59;17.50;;;8.90;;
4642;SDS011;2334;48.710;9.622;2022-12-16T15:02:45;16.13;;;8.40;;
4642;SDS011;2334;48.710;9.622;2022-12-16T15:05:32;13.33;;;6.43;;
4642;SDS011;2334;48.710;9.622;2022-12-16T15:08:19;16.40;;;8.43;;
4642;SDS011;2334;48.710;9.622;2022-12-16T15:11:06;24.73;;;11.60;;
4642;SDS011;2334;48.710;9.622;2022-12-16T15:13:55;34.23;;;15.10;;
4642;SDS011;2334;48.710;9.622;2022-12-16T15:16:41;16.80;;;8.77;;
4642;SDS011;2334;48.710;9.622;2022-12-16T15:19:29;19.77;;;11.67;;
4642;SDS011;2334;48.710;9.622;2022-12-16T15:22:20;14.83;;;7.87;;
4642;SDS011;2334;48.710;9.622;2022-12-16T15:25:04;18.33;;;7.90;;
4642;SDS011;2334;48.710;9.622;2022-12-16T15:28:00;13.27;;;7.93;;
4642;SDS011;2334;48.710;9.622;2022-12-16T15:30:45;17.23;;;6.87;;
4642;SDS011;2334;48.710;9.622;2022-12-16T15:33:31;17.70;;;7.20;;
4642;SDS011;2334;48.710;9.622;2022-12-16T15:36:23;15.10;;;9.00;;
4642;SDS011;2334;48.710;9.622;2022-12-16T15:39:13;14.10;;;7.33;;
4642;SDS011;2334;48.710;9.622;2022-12-16T15:42:04;14.07;;;7.50;;
4642;SDS011;2334;48.710;9.622;2022-12-16T15:45:04;17.83;;;7.10;;
4642;SDS011;2334;48.710;9.622;2022-12-16T15:47:58;18.10;;;8.43;;
4642;SDS011;2334;48.710;9.622;2022-12-16T15:50:51;19.20;;;9.53;;
4642;SDS011;2334;48.710;9.622;2022-12-16T15:53:36;15.60;;;8.17;;
4642;SDS011;2334;48.710;9.622;2022-12-16T15:56:22;12.57;;;7.47;;
4642;SDS011;2334;48.710;9.622;2022-12-16T15:59:12;14.87;;;8.27;;
4642;SDS011;2334;48.710;9.622;2022-12-16T16:01:58;12.00;;;6.80;;
4642;SDS011;2334;48.710;9.622;2022-12-16T16:04:51;14.33;;;6.53;;
4642;SDS011;2334;48.710;9.622;2022-12-16T16:07:36;16.50;;;6.77;;
4642;SDS011;2334;48.710;9.622;2022-12-16T16:10:21;16.13;;;7.23;;
4642;SDS011;2334;48.710;9.622;2022-12-16T16:13:07;15.03;;;7.07;;
4642;SDS011;2334;48.710;9.622;2022-12-16T16:15:51;10.13;;;7.00;;
4642;SDS011;2334;48.710;9.622;2022-12-16T16:18:37;19.67;;;8.90;;
4642;SDS011;2334;48.710;9.622;2022-12-16T16:21:23;15.20;;;7.70;;
4642;SDS011;2334;48.710;9.622;2022-12-16T16:24:07;14.70;;;7.53;;
4642;SDS011;2334;48.710;9.622;2022-12-16T16:26:52;12.90;;;6.70;;
4642;SDS011;2334;48.710;9.622;2022-12-16T16:29:37;10.07;;;6.40;;
4642;SDS011;2334;48.710;9.622;2022-12-16T16:32:21;11.20;;;6.50;;
4642;SDS011;2334;48.710;9.622;2022-12-16T16:35:06;10.83;;;6.77;;
4642;SDS011;2334;48.710;9.622;2022-12-16T16:37:51;14.93;;;7.33;;
4642;SDS011;2334;48.710;9.622;2022-12-16T16:40:36;12.13;;;6.00;;
4642;SDS011;2334;48.710;9.622;2022-12-16T16:43:22;10.77;;;6.03;;